sensor_id;sensor_type;location;lat;lon;timestamp;P1;durP1;ratioP1;P2;durP2;ratioP2
76867;SDS011;66168;45.478;11.060;2023-01-28T00:01:33;9.80;;;5.50;;
76867;SDS011;66168;45.478;11.060;2023-01-28T00:04:00;8.20;;;4.50;;
76867;SDS011;66168;45.478;11.060;2023-01-28T00:06:27;9.30;;;4.70;;
76867;SDS011;66168;45.478;11.060;2023-01-28T00:08:53;6.60;;;4.50;;
76867;SDS011;66168;45.478;11.060;2023-01-28T00:11:21;9.40;;;5.50;;
76867;SDS011;66168;45.478;11.060;2023-01-28T00:13:51;8.60;;;5.00;;
76867;SDS011;66168;45.478;11.060;2023-01-28T00:16:19;8.20;;;4.60;;
76867;SDS011;66168;45.478;11.060;2023-01-28T00:18:53;7.90;;;4.80;;
76867;SDS011;66168;45.478;11.060;2023-01-28T00:21:20;7.20;;;4.70;;
76867;SDS011;66168;45.478;11.060;2023-01-28T00:23:49;9.20;;;5.00;;
76867;SDS011;66168;45.478;11.060;2023-01-28T00:26:21;9.40;;;4.70;;
76867;SDS011;66168;45.478;11.060;2023-01-28T00:28:50;9.90;;;4.90;;
76867;SDS011;66168;45.478;11.060;2023-01-28T00:31:18;8.80;;;5.20;;
76867;SDS011;66168;45.478;11.060;2023-01-28T00:33:50;8.00;;;4.60;;
76867;SDS011;66168;45.478;11.060;2023-01-28T00:36:18;7.80;;;4.80;;
76867;SDS011;66168;45.478;11.060;2023-01-28T00:38:50;9.30;;;4.40;;
76867;SDS011;66168;45.478;11.060;2023-01-28T00:41:19;8.00;;;4.20;;
76867;SDS011;66168;45.478;11.060;2023-01-28T00:43:49;9.50;;;5.00;;
76867;SDS011;66168;45.478;11.060;2023-01-28T00:46:17;7.80;;;4.70;;
76867;SDS011;66168;45.478;11.060;2023-01-28T00:48:44;7.80;;;4.60;;
76867;SDS011;66168;45.478;11.060;2023-01-28T00:51:12;7.40;;;4.30;;
76867;SDS011;66168;45.478;11.060;2023-01-28T00:53:41;7.80;;;4.40;;
76867;SDS011;66168;45.478;11.060;2023-01-28T00:56:11;7.40;;;4.40;;
76867;SDS011;66168;45.478;11.060;2023-01-28T00:58:40;10.50;;;5.50;;
76867;SDS011;66168;45.478;11.060;2023-01-28T01:03:51;8.20;;;4.20;;
76867;SDS011;66168;45.478;11.060;2023-01-28T01:06:30;8.70;;;4.60;;
76867;SDS011;66168;45.478;11.060;2023-01-28T01:08:59;8.10;;;4.50;;
76867;SDS011;66168;45.478;11.060;2023-01-28T01:11:26;7.80;;;4.30;;
76867;SDS011;66168;45.478;11.060;2023-01-28T01:13:54;7.60;;;4.60;;
76867;SDS011;66168;45.478;11.060;2023-01-28T01:16:24;8.40;;;4.70;;
76867;SDS011;66168;45.478;11.060;2023-01-28T01:18:53;8.90;;;4.50;;
76867;SDS011;66168;45.478;11.060;2023-01-28T01:21:22;8.20;;;4.00;;
76867;SDS011;66168;45.478;11.060;2023-01-28T01:23:50;6.60;;;4.80;;
76867;SDS011;66168;45.478;11.060;2023-01-28T01:26:20;9.40;;;4.20;;
76867;SDS011;66168;45.478;11.060;2023-01-28T01:28:49;7.70;;;4.20;;
76867;SDS011;66168;45.478;11.060;2023-01-28T01:31:17;6.90;;;4.10;;
76867;SDS011;66168;45.478;11.060;2023-01-28T01:33:45;7.10;;;3.90;;
76867;SDS011;66168;45.478;11.060;2023-01-28T01:36:14;8.20;;;4.30;;
76867;SDS011;66168;45.478;11.060;2023-01-28T01:38:43;8.40;;;4.10;;
76867;SDS011;66168;45.478;11.060;2023-01-28T01:41:19;7.20;;;3.90;;
76867;SDS011;66168;45.478;11.060;2023-01-28T01:44:00;7.50;;;4.30;;
76867;SDS011;66168;45.478;11.060;2023-01-28T01:51:55;5.30;;;3.10;;
76867;SDS011;66168;45.478;11.060;2023-01-28T01:54:27;6.90;;;4.10;;
76867;SDS011;66168;45.478;11.060;2023-01-28T01:56:57;7.50;;;4.00;;
76867;SDS011;66168;45.478;11.060;2023-01-28T01:59:27;5.40;;;3.70;;
76867;SDS011;66168;45.478;11.060;2023-01-28T02:01:57;7.00;;;4.20;;
76867;SDS011;66168;45.478;11.060;2023-01-28T02:04:30;7.30;;;4.20;;
76867;SDS011;66168;45.478;11.060;2023-01-28T02:07:00;8.70;;;4.70;;
76867;SDS011;66168;45.478;11.060;2023-01-28T02:09:28;7.80;;;4.10;;
76867;SDS011;66168;45.478;11.060;2023-01-28T02:12:18;8.70;;;4.20;;
76867;SDS011;66168;45.478;11.060;2023-01-28T02:14:47;7.50;;;4.30;;
76867;SDS011;66168;45.478;11.060;2023-01-28T02:17:18;7.90;;;4.40;;
76867;SDS011;66168;45.478;11.060;2023-01-28T02:31:28;8.50;;;4.60;;
76867;SDS011;66168;45.478;11.060;2023-01-28T02:34:08;5.90;;;3.60;;
76867;SDS011;66168;45.478;11.060;2023-01-28T02:39:23;7.50;;;4.30;;
76867;SDS011;66168;45.478;11.060;2023-01-28T02:42:04;7.60;;;4.40;;
76867;SDS011;66168;45.478;11.060;2023-01-28T02:44:35;10.80;;;5.40;;
76867;SDS011;66168;45.478;11.060;2023-01-28T02:47:01;7.40;;;4.40;;
76867;SDS011;66168;45.478;11.060;2023-01-28T02:49:48;8.90;;;4.90;;
76867;SDS011;66168;45.478;11.060;2023-01-28T02:56:09;8.20;;;4.60;;
76867;SDS011;66168;45.478;11.060;2023-01-28T03:04:15;11.00;;;4.70;;
76867;SDS011;66168;45.478;11.060;2023-01-28T03:06:49;7.30;;;4.10;;
76867;SDS011;66168;45.478;11.060;2023-01-28T03:09:22;7.50;;;4.60;;
76867;SDS011;66168;45.478;11.060;2023-01-28T03:11:54;9.90;;;5.50;;
76867;SDS011;66168;45.478;11.060;2023-01-28T03:14:48;7.90;;;4.30;;
76867;SDS011;66168;45.478;11.060;2023-01-28T03:17:44;8.10;;;4.80;;
76867;SDS011;66168;45.478;11.060;2023-01-28T03:20:44;7.50;;;4.70;;
76867;SDS011;66168;45.478;11.060;2023-01-28T03:23:37;6.80;;;4.50;;
76867;SDS011;66168;45.478;11.060;2023-01-28T03:26:53;6.50;;;4.10;;
76867;SDS011;66168;45.478;11.060;2023-01-28T03:29:57;7.50;;;4.20;;
76867;SDS011;66168;45.478;11.060;2023-01-28T03:32:47;9.20;;;4.90;;
76867;SDS011;66168;45.478;11.060;2023-01-28T03:35:34;7.10;;;4.40;;
76867;SDS011;66168;45.478;11.060;2023-01-28T03:38:21;8.70;;;4.90;;
76867;SDS011;66168;45.478;11.060;2023-01-28T03:43:18;7.80;;;5.10;;
76867;SDS011;66168;45.478;11.060;2023-01-28T03:45:46;8.00;;;4.70;;
76867;SDS011;66168;45.478;11.060;2023-01-28T03:48:17;6.00;;;3.90;;
76867;SDS011;66168;45.478;11.060;2023-01-28T03:50:45;8.50;;;5.20;;
76867;SDS011;66168;45.478;11.060;2023-01-28T03:53:14;8.50;;;4.90;;
76867;SDS011;66168;45.478;11.060;2023-01-28T03:55:50;8.80;;;5.20;;
76867;SDS011;66168;45.478;11.060;2023-01-28T03:58:18;6.80;;;4.50;;
76867;SDS011;66168;45.478;11.060;2023-01-28T04:00:46;8.30;;;4.20;;
76867;SDS011;66168;45.478;11.060;2023-01-28T04:03:17;8.70;;;4.70;;
76867;SDS011;66168;45.478;11.060;2023-01-28T04:05:57;8.80;;;4.50;;
76867;SDS011;66168;45.478;11.060;2023-01-28T04:08:27;10.30;;;5.40;;
76867;SDS011;66168;45.478;11.060;2023-01-28T04:11:23;8.20;;;4.60;;
76867;SDS011;66168;45.478;11.060;2023-01-28T04:13:51;7.80;;;4.70;;
76867;SDS011;66168;45.478;11.060;2023-01-28T04:16:19;7.50;;;4.50;;
76867;SDS011;66168;45.478;11.060;2023-01-28T04:18:46;7.90;;;4.30;;
76867;SDS011;66168;45.478;11.060;2023-01-28T04:21:14;7.40;;;4.40;;
76867;SDS011;66168;45.478;11.060;2023-01-28T04:23:41;9.20;;;4.60;;
76867;SDS011;66168;45.478;11.060;2023-01-28T04:26:10;6.70;;;4.50;;
76867;SDS011;66168;45.478;11.060;2023-01-28T04:28:37;10.20;;;4.90;;
76867;SDS011;66168;45.478;11.060;2023-01-28T04:31:04;6.10;;;4.20;;
76867;SDS011;66168;45.478;11.060;2023-01-28T04:33:40;7.80;;;5.00;;
76867;SDS011;66168;45.478;11.060;2023-01-28T04:36:17;8.40;;;4.70;;
76867;SDS011;66168;45.478;11.060;2023-01-28T04:38:59;9.80;;;5.20;;
76867;SDS011;66168;45.478;11.060;2023-01-28T04:41:37;8.40;;;4.50;;
76867;SDS011;66168;45.478;11.060;2023-01-28T04:44:11;7.20;;;4.80;;
76867;SDS011;66168;45.478;11.060;2023-01-28T04:47:01;8.10;;;5.30;;
76867;SDS011;66168;45.478;11.060;2023-01-28T04:49:51;9.00;;;5.30;;
76867;SDS011;66168;45.478;11.060;2023-01-28T04:52:32;8.50;;;4.70;;
76867;SDS011;66168;45.478;11.060;2023-01-28T04:55:33;7.20;;;4.80;;
76867;SDS011;66168;45.478;11.060;2023-01-28T04:58:00;7.60;;;4.80;;
76867;SDS011;66168;45.478;11.060;2023-01-28T05:00:27;8.60;;;5.20;;
76867;SDS011;66168;45.478;11.060;2023-01-28T05:02:54;9.90;;;5.50;;
76867;SDS011;66168;45.478;11.060;2023-01-28T05:05:21;9.20;;;5.00;;
76867;SDS011;66168;45.478;11.060;2023-01-28T05:08:02;11.60;;;5.30;;
76867;SDS011;66168;45.478;11.060;2023-01-28T05:10:29;8.40;;;5.10;;
76867;SDS011;66168;45.478;11.060;2023-01-28T05:12:56;7.30;;;4.10;;
76867;SDS011;66168;45.478;11.060;2023-01-28T05:15:23;8.60;;;4.50;;
76867;SDS011;66168;45.478;11.060;2023-01-28T05:17:53;8.10;;;4.70;;
76867;SDS011;66168;45.478;11.060;2023-01-28T05:20:22;9.80;;;5.10;;
76867;SDS011;66168;45.478;11.060;2023-01-28T05:22:49;11.70;;;6.00;;
76867;SDS011;66168;45.478;11.060;2023-01-28T05:25:24;9.00;;;4.70;;
76867;SDS011;66168;45.478;11.060;2023-01-28T05:27:53;8.30;;;5.00;;
76867;SDS011;66168;45.478;11.060;2023-01-28T05:30:20;7.60;;;4.10;;
76867;SDS011;66168;45.478;11.060;2023-01-28T05:32:47;7.90;;;4.70;;
76867;SDS011;66168;45.478;11.060;2023-01-28T05:35:19;8.50;;;5.10;;
76867;SDS011;66168;45.478;11.060;2023-01-28T05:37:46;11.10;;;5.60;;
76867;SDS011;66168;45.478;11.060;2023-01-28T05:40:13;9.90;;;5.70;;
76867;SDS011;66168;45.478;11.060;2023-01-28T05:42:40;7.80;;;4.70;;
76867;SDS011;66168;45.478;11.060;2023-01-28T05:45:19;7.50;;;4.50;;
76867;SDS011;66168;45.478;11.060;2023-01-28T05:48:09;9.60;;;4.90;;
76867;SDS011;66168;45.478;11.060;2023-01-28T05:50:47;9.60;;;5.20;;
76867;SDS011;66168;45.478;11.060;2023-01-28T05:53:34;8.40;;;4.90;;
76867;SDS011;66168;45.478;11.060;2023-01-28T05:56:01;9.80;;;4.50;;
76867;SDS011;66168;45.478;11.060;2023-01-28T05:58:30;9.00;;;5.00;;
76867;SDS011;66168;45.478;11.060;2023-01-28T06:01:00;9.80;;;5.00;;
76867;SDS011;66168;45.478;11.060;2023-01-28T06:03:35;6.90;;;4.40;;
76867;SDS011;66168;45.478;11.060;2023-01-28T06:06:02;8.70;;;5.40;;
76867;SDS011;66168;45.478;11.060;2023-01-28T06:08:30;10.70;;;5.40;;
76867;SDS011;66168;45.478;11.060;2023-01-28T06:10:57;9.30;;;5.10;;
76867;SDS011;66168;45.478;11.060;2023-01-28T06:13:24;9.00;;;5.10;;
76867;SDS011;66168;45.478;11.060;2023-01-28T06:16:00;8.70;;;4.70;;
76867;SDS011;66168;45.478;11.060;2023-01-28T06:18:41;7.80;;;4.80;;
76867;SDS011;66168;45.478;11.060;2023-01-28T06:21:08;8.90;;;5.00;;
76867;SDS011;66168;45.478;11.060;2023-01-28T06:23:35;8.20;;;4.80;;
76867;SDS011;66168;45.478;11.060;2023-01-28T06:26:06;9.10;;;5.30;;
76867;SDS011;66168;45.478;11.060;2023-01-28T06:28:34;7.80;;;4.60;;
76867;SDS011;66168;45.478;11.060;2023-01-28T06:31:01;8.50;;;4.50;;
76867;SDS011;66168;45.478;11.060;2023-01-28T06:33:27;9.70;;;4.90;;
76867;SDS011;66168;45.478;11.060;2023-01-28T06:35:55;7.90;;;4.40;;
76867;SDS011;66168;45.478;11.060;2023-01-28T06:38:21;8.90;;;4.40;;
76867;SDS011;66168;45.478;11.060;2023-01-28T06:40:51;9.80;;;4.60;;
76867;SDS011;66168;45.478;11.060;2023-01-28T06:43:21;7.20;;;4.60;;
76867;SDS011;66168;45.478;11.060;2023-01-28T06:45:53;9.30;;;4.40;;
76867;SDS011;66168;45.478;11.060;2023-01-28T06:48:20;6.70;;;4.00;;
76867;SDS011;66168;45.478;11.060;2023-01-28T06:50:47;5.00;;;3.30;;
76867;SDS011;66168;45.478;11.060;2023-01-28T06:53:14;6.30;;;3.80;;
76867;SDS011;66168;45.478;11.060;2023-01-28T06:55:42;5.50;;;3.50;;
76867;SDS011;66168;45.478;11.060;2023-01-28T06:58:08;6.60;;;4.30;;
76867;SDS011;66168;45.478;11.060;2023-01-28T07:00:35;6.30;;;4.10;;
76867;SDS011;66168;45.478;11.060;2023-01-28T07:03:03;6.50;;;3.60;;
76867;SDS011;66168;45.478;11.060;2023-01-28T07:05:30;5.70;;;4.10;;
76867;SDS011;66168;45.478;11.060;2023-01-28T07:07:57;5.60;;;3.90;;
76867;SDS011;66168;45.478;11.060;2023-01-28T07:10:24;11.70;;;3.50;;
76867;SDS011;66168;45.478;11.060;2023-01-28T07:12:51;6.60;;;3.70;;
76867;SDS011;66168;45.478;11.060;2023-01-28T07:15:17;6.40;;;4.30;;
76867;SDS011;66168;45.478;11.060;2023-01-28T07:17:44;14.10;;;8.80;;
76867;SDS011;66168;45.478;11.060;2023-01-28T07:20:11;8.90;;;5.00;;
76867;SDS011;66168;45.478;11.060;2023-01-28T07:22:41;8.10;;;4.60;;
76867;SDS011;66168;45.478;11.060;2023-01-28T07:25:09;6.30;;;4.30;;
76867;SDS011;66168;45.478;11.060;2023-01-28T07:27:37;9.00;;;5.70;;
76867;SDS011;66168;45.478;11.060;2023-01-28T07:30:04;10.10;;;6.60;;
76867;SDS011;66168;45.478;11.060;2023-01-28T07:32:31;10.60;;;5.80;;
76867;SDS011;66168;45.478;11.060;2023-01-28T07:34:57;10.30;;;5.20;;
76867;SDS011;66168;45.478;11.060;2023-01-28T07:37:24;7.80;;;4.40;;
76867;SDS011;66168;45.478;11.060;2023-01-28T07:39:51;11.70;;;5.70;;
76867;SDS011;66168;45.478;11.060;2023-01-28T07:42:17;7.10;;;4.30;;
76867;SDS011;66168;45.478;11.060;2023-01-28T07:44:45;8.10;;;4.60;;
76867;SDS011;66168;45.478;11.060;2023-01-28T07:47:12;14.70;;;6.40;;
76867;SDS011;66168;45.478;11.060;2023-01-28T07:49:39;13.10;;;6.50;;
76867;SDS011;66168;45.478;11.060;2023-01-28T07:52:09;8.40;;;5.20;;
76867;SDS011;66168;45.478;11.060;2023-01-28T07:54:36;9.40;;;5.90;;
76867;SDS011;66168;45.478;11.060;2023-01-28T07:57:06;18.20;;;10.40;;
76867;SDS011;66168;45.478;11.060;2023-01-28T07:59:35;13.10;;;6.90;;
76867;SDS011;66168;45.478;11.060;2023-01-28T08:02:02;16.80;;;7.30;;
76867;SDS011;66168;45.478;11.060;2023-01-28T08:04:29;9.90;;;4.90;;
76867;SDS011;66168;45.478;11.060;2023-01-28T08:06:56;8.70;;;4.90;;
76867;SDS011;66168;45.478;11.060;2023-01-28T08:09:22;9.30;;;4.90;;
76867;SDS011;66168;45.478;11.060;2023-01-28T08:11:49;8.20;;;5.00;;
76867;SDS011;66168;45.478;11.060;2023-01-28T08:14:16;11.80;;;6.20;;
76867;SDS011;66168;45.478;11.060;2023-01-28T08:16:42;10.00;;;5.30;;
76867;SDS011;66168;45.478;11.060;2023-01-28T08:19:09;13.70;;;7.10;;
76867;SDS011;66168;45.478;11.060;2023-01-28T08:21:36;10.80;;;6.70;;
76867;SDS011;66168;45.478;11.060;2023-01-28T08:24:03;13.60;;;7.80;;
76867;SDS011;66168;45.478;11.060;2023-01-28T08:26:30;10.10;;;5.90;;
76867;SDS011;66168;45.478;11.060;2023-01-28T08:28:56;9.80;;;5.00;;
76867;SDS011;66168;45.478;11.060;2023-01-28T08:31:23;6.30;;;4.30;;
76867;SDS011;66168;45.478;11.060;2023-01-28T08:33:50;8.40;;;4.30;;
76867;SDS011;66168;45.478;11.060;2023-01-28T08:36:17;7.40;;;4.10;;
76867;SDS011;66168;45.478;11.060;2023-01-28T08:38:43;8.40;;;4.80;;
76867;SDS011;66168;45.478;11.060;2023-01-28T08:41:10;8.20;;;4.70;;
76867;SDS011;66168;45.478;11.060;2023-01-28T08:43:36;9.50;;;5.00;;
76867;SDS011;66168;45.478;11.060;2023-01-28T08:46:04;14.10;;;5.40;;
76867;SDS011;66168;45.478;11.060;2023-01-28T08:48:33;9.00;;;5.40;;
76867;SDS011;66168;45.478;11.060;2023-01-28T08:50:59;11.60;;;6.10;;
76867;SDS011;66168;45.478;11.060;2023-01-28T08:53:26;7.40;;;4.40;;
76867;SDS011;66168;45.478;11.060;2023-01-28T08:55:53;13.40;;;6.70;;
76867;SDS011;66168;45.478;11.060;2023-01-28T08:58:19;9.60;;;5.70;;
76867;SDS011;66168;45.478;11.060;2023-01-28T09:00:47;8.90;;;5.60;;
76867;SDS011;66168;45.478;11.060;2023-01-28T09:03:14;12.40;;;6.60;;
76867;SDS011;66168;45.478;11.060;2023-01-28T09:05:41;12.20;;;6.60;;
76867;SDS011;66168;45.478;11.060;2023-01-28T09:08:16;12.20;;;6.30;;
76867;SDS011;66168;45.478;11.060;2023-01-28T09:10:43;10.80;;;5.80;;
76867;SDS011;66168;45.478;11.060;2023-01-28T09:13:11;11.10;;;6.20;;
76867;SDS011;66168;45.478;11.060;2023-01-28T09:15:39;12.30;;;6.50;;
76867;SDS011;66168;45.478;11.060;2023-01-28T09:18:06;9.80;;;6.00;;
76867;SDS011;66168;45.478;11.060;2023-01-28T09:20:33;11.30;;;6.90;;
76867;SDS011;66168;45.478;11.060;2023-01-28T09:23:00;10.50;;;6.30;;
76867;SDS011;66168;45.478;11.060;2023-01-28T09:25:27;9.50;;;6.00;;
76867;SDS011;66168;45.478;11.060;2023-01-28T09:27:54;8.30;;;5.20;;
76867;SDS011;66168;45.478;11.060;2023-01-28T09:30:21;10.00;;;5.80;;
76867;SDS011;66168;45.478;11.060;2023-01-28T09:32:51;12.00;;;5.80;;
76867;SDS011;66168;45.478;11.060;2023-01-28T09:35:19;9.70;;;6.40;;
76867;SDS011;66168;45.478;11.060;2023-01-28T09:37:46;12.20;;;6.30;;
76867;SDS011;66168;45.478;11.060;2023-01-28T09:40:15;9.10;;;6.20;;
76867;SDS011;66168;45.478;11.060;2023-01-28T09:48:31;9.60;;;5.00;;
76867;SDS011;66168;45.478;11.060;2023-01-28T09:51:06;9.80;;;5.10;;
76867;SDS011;66168;45.478;11.060;2023-01-28T09:53:38;6.50;;;4.00;;
76867;SDS011;66168;45.478;11.060;2023-01-28T09:56:11;8.90;;;5.50;;
76867;SDS011;66168;45.478;11.060;2023-01-28T09:58:41;9.30;;;5.50;;
76867;SDS011;66168;45.478;11.060;2023-01-28T10:01:26;9.00;;;5.50;;
76867;SDS011;66168;45.478;11.060;2023-01-28T10:07:25;10.30;;;5.80;;
76867;SDS011;66168;45.478;11.060;2023-01-28T10:09:52;9.00;;;5.10;;
76867;SDS011;66168;45.478;11.060;2023-01-28T10:15:27;12.20;;;5.80;;
76867;SDS011;66168;45.478;11.060;2023-01-28T10:18:14;7.90;;;4.50;;
76867;SDS011;66168;45.478;11.060;2023-01-28T10:20:47;8.90;;;6.20;;
76867;SDS011;66168;45.478;11.060;2023-01-28T10:23:19;8.70;;;5.70;;
76867;SDS011;66168;45.478;11.060;2023-01-28T10:25:52;9.30;;;6.10;;
76867;SDS011;66168;45.478;11.060;2023-01-28T10:28:23;9.00;;;6.00;;
76867;SDS011;66168;45.478;11.060;2023-01-28T10:30:53;9.00;;;5.90;;
76867;SDS011;66168;45.478;11.060;2023-01-28T10:35:51;10.50;;;6.70;;
76867;SDS011;66168;45.478;11.060;2023-01-28T10:38:19;10.00;;;6.00;;
76867;SDS011;66168;45.478;11.060;2023-01-28T10:40:47;13.40;;;8.60;;
76867;SDS011;66168;45.478;11.060;2023-01-28T10:43:16;10.70;;;6.90;;
76867;SDS011;66168;45.478;11.060;2023-01-28T10:46:04;12.80;;;7.50;;
76867;SDS011;66168;45.478;11.060;2023-01-28T10:51:34;11.40;;;6.50;;
76867;SDS011;66168;45.478;11.060;2023-01-28T10:54:02;12.10;;;6.80;;
76867;SDS011;66168;45.478;11.060;2023-01-28T10:56:43;12.70;;;7.90;;
76867;SDS011;66168;45.478;11.060;2023-01-28T10:59:20;11.40;;;6.50;;
76867;SDS011;66168;45.478;11.060;2023-01-28T11:01:49;9.30;;;5.90;;
76867;SDS011;66168;45.478;11.060;2023-01-28T11:04:25;10.50;;;6.40;;
76867;SDS011;66168;45.478;11.060;2023-01-28T11:07:04;9.70;;;5.90;;
76867;SDS011;66168;45.478;11.060;2023-01-28T11:09:44;9.30;;;5.90;;
76867;SDS011;66168;45.478;11.060;2023-01-28T11:12:19;9.70;;;5.80;;
76867;SDS011;66168;45.478;11.060;2023-01-28T11:14:48;8.00;;;5.60;;
76867;SDS011;66168;45.478;11.060;2023-01-28T11:17:17;9.10;;;5.70;;
76867;SDS011;66168;45.478;11.060;2023-01-28T11:19:45;9.30;;;6.00;;
76867;SDS011;66168;45.478;11.060;2023-01-28T11:22:14;9.70;;;5.10;;
76867;SDS011;66168;45.478;11.060;2023-01-28T11:24:47;12.90;;;7.00;;
76867;SDS011;66168;45.478;11.060;2023-01-28T11:27:14;10.90;;;6.40;;
76867;SDS011;66168;45.478;11.060;2023-01-28T11:29:43;9.40;;;5.90;;
76867;SDS011;66168;45.478;11.060;2023-01-28T11:32:19;9.60;;;6.50;;
76867;SDS011;66168;45.478;11.060;2023-01-28T11:34:51;9.30;;;6.10;;
76867;SDS011;66168;45.478;11.060;2023-01-28T11:37:21;7.90;;;5.60;;
76867;SDS011;66168;45.478;11.060;2023-01-28T11:39:48;11.00;;;5.00;;
76867;SDS011;66168;45.478;11.060;2023-01-28T11:42:28;9.20;;;6.20;;
76867;SDS011;66168;45.478;11.060;2023-01-28T11:44:55;6.70;;;5.00;;
76867;SDS011;66168;45.478;11.060;2023-01-28T11:53:13;6.70;;;4.50;;
76867;SDS011;66168;45.478;11.060;2023-01-28T12:04:36;7.40;;;4.60;;
76867;SDS011;66168;45.478;11.060;2023-01-28T12:10:00;6.40;;;4.50;;
76867;SDS011;66168;45.478;11.060;2023-01-28T12:21:03;6.00;;;3.80;;
76867;SDS011;66168;45.478;11.060;2023-01-28T12:26:32;7.80;;;4.20;;
76867;SDS011;66168;45.478;11.060;2023-01-28T12:35:02;4.80;;;3.90;;
76867;SDS011;66168;45.478;11.060;2023-01-28T12:40:57;6.40;;;4.60;;
76867;SDS011;66168;45.478;11.060;2023-01-28T12:43:43;6.70;;;4.60;;
76867;SDS011;66168;45.478;11.060;2023-01-28T12:49:28;6.90;;;3.80;;
76867;SDS011;66168;45.478;11.060;2023-01-28T12:52:11;5.90;;;4.00;;
76867;SDS011;66168;45.478;11.060;2023-01-28T12:57:27;8.90;;;4.70;;
76867;SDS011;66168;45.478;11.060;2023-01-28T13:03:29;6.50;;;4.20;;
76867;SDS011;66168;45.478;11.060;2023-01-28T13:06:20;6.70;;;4.10;;
76867;SDS011;66168;45.478;11.060;2023-01-28T13:08:58;9.30;;;5.10;;
76867;SDS011;66168;45.478;11.060;2023-01-28T13:11:29;8.90;;;4.60;;
76867;SDS011;66168;45.478;11.060;2023-01-28T13:14:01;7.40;;;4.90;;
76867;SDS011;66168;45.478;11.060;2023-01-28T13:16:30;6.80;;;3.40;;
76867;SDS011;66168;45.478;11.060;2023-01-28T13:19:04;5.30;;;3.40;;
76867;SDS011;66168;45.478;11.060;2023-01-28T13:21:33;7.30;;;4.90;;
76867;SDS011;66168;45.478;11.060;2023-01-28T13:26:42;7.70;;;4.40;;
76867;SDS011;66168;45.478;11.060;2023-01-28T13:31:46;8.60;;;4.90;;
76867;SDS011;66168;45.478;11.060;2023-01-28T13:34:37;9.60;;;5.80;;
76867;SDS011;66168;45.478;11.060;2023-01-28T13:42:40;8.50;;;4.70;;
76867;SDS011;66168;45.478;11.060;2023-01-28T13:47:43;10.60;;;5.70;;
76867;SDS011;66168;45.478;11.060;2023-01-28T13:50:14;6.90;;;4.60;;
76867;SDS011;66168;45.478;11.060;2023-01-28T13:52:46;9.00;;;5.60;;
76867;SDS011;66168;45.478;11.060;2023-01-28T13:55:24;12.00;;;6.10;;
76867;SDS011;66168;45.478;11.060;2023-01-28T14:09:32;6.50;;;4.50;;
76867;SDS011;66168;45.478;11.060;2023-01-28T14:15:09;6.90;;;4.20;;
76867;SDS011;66168;45.478;11.060;2023-01-28T14:17:58;7.30;;;4.40;;
76867;SDS011;66168;45.478;11.060;2023-01-28T14:20:33;8.30;;;4.70;;
76867;SDS011;66168;45.478;11.060;2023-01-28T14:23:16;6.30;;;4.00;;
76867;SDS011;66168;45.478;11.060;2023-01-28T14:25:57;7.40;;;4.40;;
76867;SDS011;66168;45.478;11.060;2023-01-28T14:31:26;5.80;;;4.00;;
76867;SDS011;66168;45.478;11.060;2023-01-28T14:34:02;7.80;;;5.20;;
76867;SDS011;66168;45.478;11.060;2023-01-28T14:36:38;9.50;;;6.00;;
76867;SDS011;66168;45.478;11.060;2023-01-28T14:39:16;12.80;;;7.00;;
76867;SDS011;66168;45.478;11.060;2023-01-28T14:41:47;10.40;;;5.90;;
76867;SDS011;66168;45.478;11.060;2023-01-28T14:44:21;6.90;;;4.50;;
76867;SDS011;66168;45.478;11.060;2023-01-28T14:55:21;6.90;;;4.60;;
76867;SDS011;66168;45.478;11.060;2023-01-28T14:57:57;7.90;;;4.70;;
76867;SDS011;66168;45.478;11.060;2023-01-28T15:00:30;7.90;;;4.70;;
76867;SDS011;66168;45.478;11.060;2023-01-28T15:02:59;9.10;;;5.20;;
76867;SDS011;66168;45.478;11.060;2023-01-28T15:06:00;7.00;;;4.50;;
76867;SDS011;66168;45.478;11.060;2023-01-28T15:08:31;9.40;;;5.00;;
76867;SDS011;66168;45.478;11.060;2023-01-28T15:10:58;8.50;;;5.40;;
76867;SDS011;66168;45.478;11.060;2023-01-28T15:13:31;7.20;;;4.80;;
76867;SDS011;66168;45.478;11.060;2023-01-28T15:16:01;7.70;;;4.90;;
76867;SDS011;66168;45.478;11.060;2023-01-28T15:18:30;8.00;;;5.30;;
76867;SDS011;66168;45.478;11.060;2023-01-28T15:21:00;8.00;;;5.30;;
76867;SDS011;66168;45.478;11.060;2023-01-28T15:23:31;8.10;;;5.30;;
76867;SDS011;66168;45.478;11.060;2023-01-28T15:26:04;8.30;;;4.70;;
76867;SDS011;66168;45.478;11.060;2023-01-28T15:28:43;7.10;;;4.60;;
76867;SDS011;66168;45.478;11.060;2023-01-28T15:31:53;7.20;;;4.40;;
76867;SDS011;66168;45.478;11.060;2023-01-28T15:34:14;8.00;;;4.90;;
76867;SDS011;66168;45.478;11.060;2023-01-28T15:36:43;7.80;;;5.00;;
76867;SDS011;66168;45.478;11.060;2023-01-28T15:39:17;6.90;;;4.50;;
76867;SDS011;66168;45.478;11.060;2023-01-28T15:41:48;8.40;;;5.00;;
76867;SDS011;66168;45.478;11.060;2023-01-28T15:44:28;6.50;;;4.30;;
76867;SDS011;66168;45.478;11.060;2023-01-28T15:46:59;7.60;;;4.80;;
76867;SDS011;66168;45.478;11.060;2023-01-28T15:49:30;7.10;;;4.90;;
76867;SDS011;66168;45.478;11.060;2023-01-28T15:52:02;6.50;;;4.40;;
76867;SDS011;66168;45.478;11.060;2023-01-28T15:54:29;6.80;;;4.80;;
76867;SDS011;66168;45.478;11.060;2023-01-28T15:56:56;7.50;;;4.80;;
76867;SDS011;66168;45.478;11.060;2023-01-28T15:59:34;6.00;;;4.40;;
76867;SDS011;66168;45.478;11.060;2023-01-28T16:02:20;9.20;;;6.10;;
76867;SDS011;66168;45.478;11.060;2023-01-28T16:04:54;8.10;;;4.90;;
76867;SDS011;66168;45.478;11.060;2023-01-28T16:07:29;10.00;;;6.40;;
76867;SDS011;66168;45.478;11.060;2023-01-28T16:09:58;9.80;;;6.50;;
76867;SDS011;66168;45.478;11.060;2023-01-28T16:12:27;11.00;;;6.80;;
76867;SDS011;66168;45.478;11.060;2023-01-28T16:14:55;12.90;;;8.20;;
76867;SDS011;66168;45.478;11.060;2023-01-28T16:17:25;15.70;;;10.00;;
76867;SDS011;66168;45.478;11.060;2023-01-28T16:20:00;14.00;;;7.90;;
76867;SDS011;66168;45.478;11.060;2023-01-28T16:22:37;10.20;;;6.50;;
76867;SDS011;66168;45.478;11.060;2023-01-28T16:28:15;11.60;;;7.20;;
76867;SDS011;66168;45.478;11.060;2023-01-28T16:33:18;14.70;;;8.10;;
76867;SDS011;66168;45.478;11.060;2023-01-28T16:35:46;11.00;;;6.90;;
76867;SDS011;66168;45.478;11.060;2023-01-28T16:38:33;10.50;;;6.40;;
76867;SDS011;66168;45.478;11.060;2023-01-28T16:41:00;10.70;;;6.30;;
76867;SDS011;66168;45.478;11.060;2023-01-28T16:43:26;10.00;;;6.10;;
76867;SDS011;66168;45.478;11.060;2023-01-28T16:45:53;10.60;;;6.20;;
76867;SDS011;66168;45.478;11.060;2023-01-28T16:48:20;11.50;;;5.60;;
76867;SDS011;66168;45.478;11.060;2023-01-28T16:50:47;9.10;;;5.70;;
76867;SDS011;66168;45.478;11.060;2023-01-28T16:53:16;8.70;;;6.10;;
76867;SDS011;66168;45.478;11.060;2023-01-28T16:55:49;8.80;;;5.80;;
76867;SDS011;66168;45.478;11.060;2023-01-28T16:58:21;8.30;;;5.80;;
76867;SDS011;66168;45.478;11.060;2023-01-28T17:00:50;7.80;;;5.20;;
76867;SDS011;66168;45.478;11.060;2023-01-28T17:03:18;10.80;;;5.80;;
76867;SDS011;66168;45.478;11.060;2023-01-28T17:05:45;7.90;;;4.90;;
76867;SDS011;66168;45.478;11.060;2023-01-28T17:08:12;9.20;;;6.10;;
76867;SDS011;66168;45.478;11.060;2023-01-28T17:10:38;11.40;;;6.90;;
76867;SDS011;66168;45.478;11.060;2023-01-28T17:13:06;11.90;;;7.00;;
76867;SDS011;66168;45.478;11.060;2023-01-28T17:15:34;14.40;;;6.80;;
76867;SDS011;66168;45.478;11.060;2023-01-28T17:18:01;14.00;;;7.40;;
76867;SDS011;66168;45.478;11.060;2023-01-28T17:20:28;12.00;;;7.10;;
76867;SDS011;66168;45.478;11.060;2023-01-28T17:22:55;10.80;;;6.20;;